sensor_id;sensor_type;location;lat;lon;timestamp;P1;durP1;ratioP1;P2;durP2;ratioP2
40515;SDS011;26216;53.724;9.898;2023-07-13T00:00:34;1.80;;;0.90;;
40515;SDS011;26216;53.724;9.898;2023-07-13T00:03:01;1.05;;;0.70;;
40515;SDS011;26216;53.724;9.898;2023-07-13T00:05:27;1.73;;;0.93;;
40515;SDS011;26216;53.724;9.898;2023-07-13T00:07:53;1.05;;;0.80;;
40515;SDS011;26216;53.724;9.898;2023-07-13T00:10:20;0.80;;;0.60;;
40515;SDS011;26216;53.724;9.898;2023-07-13T00:12:46;2.42;;;0.77;;
40515;SDS011;26216;53.724;9.898;2023-07-13T00:15:20;1.13;;;0.80;;
40515;SDS011;26216;53.724;9.898;2023-07-13T00:17:52;1.17;;;0.77;;
40515;SDS011;26216;53.724;9.898;2023-07-13T00:20:20;2.05;;;0.80;;
40515;SDS011;26216;53.724;9.898;2023-07-13T00:22:48;1.02;;;0.70;;
40515;SDS011;26216;53.724;9.898;2023-07-13T00:25:14;2.20;;;0.73;;
40515;SDS011;26216;53.724;9.898;2023-07-13T00:27:43;3.92;;;1.23;;
40515;SDS011;26216;53.724;9.898;2023-07-13T00:30:10;1.30;;;0.90;;
40515;SDS011;26216;53.724;9.898;2023-07-13T00:32:37;1.45;;;0.70;;
40515;SDS011;26216;53.724;9.898;2023-07-13T00:35:03;1.20;;;0.80;;
40515;SDS011;26216;53.724;9.898;2023-07-13T00:37:29;1.25;;;0.80;;
40515;SDS011;26216;53.724;9.898;2023-07-13T00:39:56;1.55;;;1.00;;
40515;SDS011;26216;53.724;9.898;2023-07-13T00:42:21;1.20;;;0.80;;
40515;SDS011;26216;53.724;9.898;2023-07-13T00:47:48;0.95;;;0.80;;
40515;SDS011;26216;53.724;9.898;2023-07-13T00:50:15;1.55;;;1.10;;
40515;SDS011;26216;53.724;9.898;2023-07-13T00:52:45;1.63;;;0.90;;
40515;SDS011;26216;53.724;9.898;2023-07-13T00:55:14;1.55;;;1.10;;
40515;SDS011;26216;53.724;9.898;2023-07-13T00:57:41;1.73;;;1.30;;
40515;SDS011;26216;53.724;9.898;2023-07-13T01:00:07;1.88;;;1.05;;
40515;SDS011;26216;53.724;9.898;2023-07-13T01:02:35;1.42;;;0.70;;
40515;SDS011;26216;53.724;9.898;2023-07-13T01:05:12;0.98;;;0.70;;
40515;SDS011;26216;53.724;9.898;2023-07-13T01:07:40;1.08;;;0.85;;
40515;SDS011;26216;53.724;9.898;2023-07-13T01:10:07;1.58;;;1.00;;
40515;SDS011;26216;53.724;9.898;2023-07-13T01:12:33;1.25;;;0.90;;
40515;SDS011;26216;53.724;9.898;2023-07-13T01:15:00;2.08;;;1.23;;
40515;SDS011;26216;53.724;9.898;2023-07-13T01:17:34;1.40;;;0.80;;
40515;SDS011;26216;53.724;9.898;2023-07-13T01:20:00;1.13;;;0.70;;
40515;SDS011;26216;53.724;9.898;2023-07-13T01:22:26;1.45;;;0.82;;
40515;SDS011;26216;53.724;9.898;2023-07-13T01:24:52;1.95;;;1.00;;
40515;SDS011;26216;53.724;9.898;2023-07-13T01:27:23;0.82;;;0.70;;
40515;SDS011;26216;53.724;9.898;2023-07-13T01:29:51;2.10;;;0.80;;
40515;SDS011;26216;53.724;9.898;2023-07-13T01:32:19;1.60;;;0.93;;
40515;SDS011;26216;53.724;9.898;2023-07-13T01:34:49;1.67;;;1.00;;
40515;SDS011;26216;53.724;9.898;2023-07-13T01:37:16;1.80;;;1.15;;
40515;SDS011;26216;53.724;9.898;2023-07-13T01:39:42;1.92;;;1.02;;
40515;SDS011;26216;53.724;9.898;2023-07-13T01:42:08;1.20;;;1.10;;
40515;SDS011;26216;53.724;9.898;2023-07-13T01:44:34;2.25;;;1.02;;
40515;SDS011;26216;53.724;9.898;2023-07-13T01:47:00;2.03;;;1.30;;
40515;SDS011;26216;53.724;9.898;2023-07-13T01:49:26;2.90;;;1.30;;
40515;SDS011;26216;53.724;9.898;2023-07-13T01:51:52;1.80;;;1.25;;
40515;SDS011;26216;53.724;9.898;2023-07-13T01:54:18;2.75;;;1.23;;
40515;SDS011;26216;53.724;9.898;2023-07-13T01:56:44;1.73;;;1.33;;
40515;SDS011;26216;53.724;9.898;2023-07-13T01:59:09;1.58;;;1.17;;
40515;SDS011;26216;53.724;9.898;2023-07-13T02:01:35;2.25;;;1.65;;
40515;SDS011;26216;53.724;9.898;2023-07-13T02:04:02;2.22;;;1.17;;
40515;SDS011;26216;53.724;9.898;2023-07-13T02:06:28;2.08;;;1.48;;
40515;SDS011;26216;53.724;9.898;2023-07-13T02:08:54;2.22;;;1.30;;
40515;SDS011;26216;53.724;9.898;2023-07-13T02:11:20;1.58;;;1.17;;
40515;SDS011;26216;53.724;9.898;2023-07-13T02:13:46;2.88;;;1.10;;
40515;SDS011;26216;53.724;9.898;2023-07-13T02:16:12;1.67;;;1.30;;
40515;SDS011;26216;53.724;9.898;2023-07-13T02:18:38;1.20;;;1.10;;
40515;SDS011;26216;53.724;9.898;2023-07-13T02:21:03;2.42;;;1.15;;
40515;SDS011;26216;53.724;9.898;2023-07-13T02:23:29;2.90;;;1.30;;
40515;SDS011;26216;53.724;9.898;2023-07-13T02:25:56;2.53;;;1.13;;
40515;SDS011;26216;53.724;9.898;2023-07-13T02:28:23;2.00;;;1.38;;
40515;SDS011;26216;53.724;9.898;2023-07-13T02:30:49;1.88;;;1.30;;
40515;SDS011;26216;53.724;9.898;2023-07-13T02:33:14;2.20;;;1.50;;
40515;SDS011;26216;53.724;9.898;2023-07-13T02:35:41;2.10;;;1.38;;
40515;SDS011;26216;53.724;9.898;2023-07-13T02:38:07;2.22;;;1.27;;
40515;SDS011;26216;53.724;9.898;2023-07-13T02:40:34;2.22;;;1.60;;
40515;SDS011;26216;53.724;9.898;2023-07-13T02:43:01;1.80;;;1.30;;
40515;SDS011;26216;53.724;9.898;2023-07-13T02:45:27;2.30;;;1.45;;
40515;SDS011;26216;53.724;9.898;2023-07-13T02:47:53;2.97;;;1.23;;
40515;SDS011;26216;53.724;9.898;2023-07-13T02:50:19;1.50;;;1.00;;
40515;SDS011;26216;53.724;9.898;2023-07-13T02:52:45;1.55;;;1.15;;
40515;SDS011;26216;53.724;9.898;2023-07-13T02:55:11;2.33;;;1.33;;
40515;SDS011;26216;53.724;9.898;2023-07-13T02:57:37;2.15;;;1.45;;
40515;SDS011;26216;53.724;9.898;2023-07-13T03:00:04;2.00;;;1.50;;
40515;SDS011;26216;53.724;9.898;2023-07-13T03:02:31;5.72;;;1.38;;
40515;SDS011;26216;53.724;9.898;2023-07-13T03:04:58;2.15;;;1.50;;
40515;SDS011;26216;53.724;9.898;2023-07-13T03:07:24;2.20;;;1.58;;
40515;SDS011;26216;53.724;9.898;2023-07-13T03:09:54;1.73;;;1.60;;
40515;SDS011;26216;53.724;9.898;2023-07-13T03:12:21;2.53;;;1.58;;
40515;SDS011;26216;53.724;9.898;2023-07-13T03:14:47;1.73;;;1.25;;
40515;SDS011;26216;53.724;9.898;2023-07-13T03:17:13;2.40;;;1.42;;
40515;SDS011;26216;53.724;9.898;2023-07-13T03:19:39;2.50;;;1.80;;
40515;SDS011;26216;53.724;9.898;2023-07-13T03:22:05;1.45;;;1.23;;
40515;SDS011;26216;53.724;9.898;2023-07-13T03:24:32;1.85;;;1.33;;
40515;SDS011;26216;53.724;9.898;2023-07-13T03:27:00;1.88;;;1.50;;
40515;SDS011;26216;53.724;9.898;2023-07-13T03:29:30;2.40;;;1.40;;
40515;SDS011;26216;53.724;9.898;2023-07-13T03:31:56;2.35;;;1.60;;
40515;SDS011;26216;53.724;9.898;2023-07-13T03:34:21;2.20;;;1.65;;
40515;SDS011;26216;53.724;9.898;2023-07-13T03:36:47;2.00;;;1.52;;
40515;SDS011;26216;53.724;9.898;2023-07-13T03:39:13;2.67;;;1.70;;
40515;SDS011;26216;53.724;9.898;2023-07-13T03:41:39;3.38;;;1.90;;
40515;SDS011;26216;53.724;9.898;2023-07-13T03:44:05;2.05;;;1.40;;
40515;SDS011;26216;53.724;9.898;2023-07-13T03:46:32;2.40;;;1.73;;
40515;SDS011;26216;53.724;9.898;2023-07-13T03:48:58;2.42;;;1.73;;
40515;SDS011;26216;53.724;9.898;2023-07-13T03:51:24;2.25;;;1.67;;
40515;SDS011;26216;53.724;9.898;2023-07-13T03:53:50;2.50;;;1.60;;
40515;SDS011;26216;53.724;9.898;2023-07-13T03:56:17;2.80;;;1.98;;
40515;SDS011;26216;53.724;9.898;2023-07-13T03:58:45;3.10;;;2.30;;
40515;SDS011;26216;53.724;9.898;2023-07-13T04:01:12;2.90;;;1.80;;
40515;SDS011;26216;53.724;9.898;2023-07-13T04:03:39;1.90;;;1.63;;
40515;SDS011;26216;53.724;9.898;2023-07-13T04:06:07;2.38;;;1.67;;
40515;SDS011;26216;53.724;9.898;2023-07-13T04:08:40;1.85;;;1.60;;
40515;SDS011;26216;53.724;9.898;2023-07-13T04:11:06;2.95;;;1.80;;
40515;SDS011;26216;53.724;9.898;2023-07-13T04:13:32;3.03;;;1.55;;
40515;SDS011;26216;53.724;9.898;2023-07-13T04:15:58;2.20;;;1.70;;
40515;SDS011;26216;53.724;9.898;2023-07-13T04:18:24;3.13;;;1.88;;
40515;SDS011;26216;53.724;9.898;2023-07-13T04:20:50;1.98;;;1.52;;
40515;SDS011;26216;53.724;9.898;2023-07-13T04:23:17;2.83;;;1.73;;
40515;SDS011;26216;53.724;9.898;2023-07-13T04:25:43;2.33;;;1.70;;
40515;SDS011;26216;53.724;9.898;2023-07-13T04:28:10;2.60;;;1.88;;
40515;SDS011;26216;53.724;9.898;2023-07-13T04:30:37;1.80;;;1.58;;
40515;SDS011;26216;53.724;9.898;2023-07-13T04:33:02;2.00;;;1.60;;
40515;SDS011;26216;53.724;9.898;2023-07-13T04:35:29;2.85;;;1.65;;
40515;SDS011;26216;53.724;9.898;2023-07-13T04:37:56;3.55;;;2.10;;
40515;SDS011;26216;53.724;9.898;2023-07-13T04:40:22;1.90;;;1.40;;
40515;SDS011;26216;53.724;9.898;2023-07-13T04:42:48;2.83;;;1.88;;
40515;SDS011;26216;53.724;9.898;2023-07-13T04:45:14;3.28;;;1.90;;
40515;SDS011;26216;53.724;9.898;2023-07-13T04:47:40;2.72;;;1.50;;
40515;SDS011;26216;53.724;9.898;2023-07-13T04:50:07;2.40;;;1.40;;
40515;SDS011;26216;53.724;9.898;2023-07-13T04:52:35;2.67;;;1.60;;
40515;SDS011;26216;53.724;9.898;2023-07-13T04:55:00;3.90;;;1.95;;
40515;SDS011;26216;53.724;9.898;2023-07-13T04:57:27;2.33;;;1.50;;
40515;SDS011;26216;53.724;9.898;2023-07-13T04:59:53;2.10;;;1.60;;
40515;SDS011;26216;53.724;9.898;2023-07-13T05:02:22;3.13;;;1.63;;
40515;SDS011;26216;53.724;9.898;2023-07-13T05:04:48;2.72;;;1.60;;
40515;SDS011;26216;53.724;9.898;2023-07-13T05:07:14;4.45;;;1.58;;
40515;SDS011;26216;53.724;9.898;2023-07-13T05:09:40;2.88;;;1.98;;
40515;SDS011;26216;53.724;9.898;2023-07-13T05:12:07;3.38;;;2.00;;
40515;SDS011;26216;53.724;9.898;2023-07-13T05:14:34;2.58;;;1.70;;
40515;SDS011;26216;53.724;9.898;2023-07-13T05:17:00;3.33;;;2.03;;
40515;SDS011;26216;53.724;9.898;2023-07-13T05:19:26;2.97;;;1.80;;
40515;SDS011;26216;53.724;9.898;2023-07-13T05:21:52;4.72;;;1.95;;
40515;SDS011;26216;53.724;9.898;2023-07-13T05:24:18;4.30;;;2.00;;
40515;SDS011;26216;53.724;9.898;2023-07-13T05:26:44;3.22;;;1.50;;
40515;SDS011;26216;53.724;9.898;2023-07-13T05:29:10;4.03;;;2.10;;
40515;SDS011;26216;53.724;9.898;2023-07-13T05:31:36;3.40;;;1.42;;
40515;SDS011;26216;53.724;9.898;2023-07-13T05:34:02;4.68;;;2.13;;
40515;SDS011;26216;53.724;9.898;2023-07-13T05:36:28;2.55;;;1.55;;
40515;SDS011;26216;53.724;9.898;2023-07-13T05:38:54;2.78;;;1.63;;
40515;SDS011;26216;53.724;9.898;2023-07-13T05:41:20;3.55;;;1.65;;
40515;SDS011;26216;53.724;9.898;2023-07-13T05:43:45;5.38;;;1.77;;
40515;SDS011;26216;53.724;9.898;2023-07-13T05:46:11;4.28;;;1.70;;
40515;SDS011;26216;53.724;9.898;2023-07-13T05:48:37;4.20;;;1.88;;
40515;SDS011;26216;53.724;9.898;2023-07-13T05:51:03;3.47;;;1.83;;
40515;SDS011;26216;53.724;9.898;2023-07-13T05:53:29;3.00;;;1.70;;
40515;SDS011;26216;53.724;9.898;2023-07-13T05:55:55;3.35;;;1.65;;
40515;SDS011;26216;53.724;9.898;2023-07-13T05:58:21;3.47;;;1.65;;
40515;SDS011;26216;53.724;9.898;2023-07-13T06:00:47;2.63;;;1.70;;
40515;SDS011;26216;53.724;9.898;2023-07-13T06:03:15;2.50;;;1.42;;
40515;SDS011;26216;53.724;9.898;2023-07-13T06:05:41;2.45;;;1.55;;
40515;SDS011;26216;53.724;9.898;2023-07-13T06:08:07;2.78;;;1.70;;
40515;SDS011;26216;53.724;9.898;2023-07-13T06:10:36;2.88;;;1.63;;
40515;SDS011;26216;53.724;9.898;2023-07-13T06:13:02;2.38;;;1.48;;
40515;SDS011;26216;53.724;9.898;2023-07-13T06:15:28;3.30;;;1.45;;
40515;SDS011;26216;53.724;9.898;2023-07-13T06:17:54;6.15;;;3.17;;
40515;SDS011;26216;53.724;9.898;2023-07-13T06:20:20;3.05;;;1.80;;
40515;SDS011;26216;53.724;9.898;2023-07-13T06:22:46;5.75;;;2.15;;
40515;SDS011;26216;53.724;9.898;2023-07-13T06:25:12;3.72;;;1.75;;
40515;SDS011;26216;53.724;9.898;2023-07-13T06:27:38;5.25;;;2.05;;
40515;SDS011;26216;53.724;9.898;2023-07-13T06:30:04;3.95;;;1.50;;
40515;SDS011;26216;53.724;9.898;2023-07-13T06:32:30;4.30;;;1.80;;
40515;SDS011;26216;53.724;9.898;2023-07-13T06:34:56;3.50;;;1.77;;
40515;SDS011;26216;53.724;9.898;2023-07-13T06:37:22;2.63;;;1.40;;
40515;SDS011;26216;53.724;9.898;2023-07-13T06:39:48;3.85;;;1.90;;
40515;SDS011;26216;53.724;9.898;2023-07-13T06:42:15;3.40;;;1.67;;
40515;SDS011;26216;53.724;9.898;2023-07-13T06:44:41;3.00;;;1.40;;
40515;SDS011;26216;53.724;9.898;2023-07-13T06:47:07;5.28;;;2.08;;
40515;SDS011;26216;53.724;9.898;2023-07-13T06:49:33;4.00;;;2.10;;
40515;SDS011;26216;53.724;9.898;2023-07-13T06:51:59;3.63;;;1.80;;
40515;SDS011;26216;53.724;9.898;2023-07-13T06:54:25;5.30;;;2.22;;
40515;SDS011;26216;53.724;9.898;2023-07-13T06:56:51;6.80;;;1.90;;
40515;SDS011;26216;53.724;9.898;2023-07-13T06:59:18;6.38;;;2.05;;
40515;SDS011;26216;53.724;9.898;2023-07-13T07:01:44;4.55;;;1.75;;
40515;SDS011;26216;53.724;9.898;2023-07-13T07:04:10;3.65;;;2.00;;
40515;SDS011;26216;53.724;9.898;2023-07-13T07:06:36;4.82;;;1.48;;
40515;SDS011;26216;53.724;9.898;2023-07-13T07:09:02;3.58;;;1.52;;
40515;SDS011;26216;53.724;9.898;2023-07-13T07:11:28;3.65;;;1.80;;
40515;SDS011;26216;53.724;9.898;2023-07-13T07:13:53;7.00;;;2.15;;
40515;SDS011;26216;53.724;9.898;2023-07-13T07:16:20;3.47;;;1.92;;
40515;SDS011;26216;53.724;9.898;2023-07-13T07:18:46;5.35;;;2.05;;
40515;SDS011;26216;53.724;9.898;2023-07-13T07:21:12;3.85;;;1.80;;
40515;SDS011;26216;53.724;9.898;2023-07-13T07:23:39;4.70;;;1.90;;
40515;SDS011;26216;53.724;9.898;2023-07-13T07:26:06;4.20;;;1.40;;
40515;SDS011;26216;53.724;9.898;2023-07-13T07:28:34;8.13;;;2.72;;
40515;SDS011;26216;53.724;9.898;2023-07-13T07:31:00;4.85;;;1.50;;
40515;SDS011;26216;53.724;9.898;2023-07-13T07:33:25;3.63;;;1.70;;
40515;SDS011;26216;53.724;9.898;2023-07-13T07:35:52;3.72;;;1.63;;
40515;SDS011;26216;53.724;9.898;2023-07-13T07:38:17;8.38;;;2.10;;
40515;SDS011;26216;53.724;9.898;2023-07-13T07:40:43;5.88;;;1.95;;
40515;SDS011;26216;53.724;9.898;2023-07-13T07:43:10;5.03;;;2.05;;
40515;SDS011;26216;53.724;9.898;2023-07-13T07:45:37;5.47;;;1.92;;
40515;SDS011;26216;53.724;9.898;2023-07-13T07:48:04;5.95;;;2.45;;
40515;SDS011;26216;53.724;9.898;2023-07-13T07:50:31;5.18;;;2.22;;
40515;SDS011;26216;53.724;9.898;2023-07-13T07:52:58;5.15;;;1.65;;
40515;SDS011;26216;53.724;9.898;2023-07-13T07:55:24;3.65;;;1.58;;
40515;SDS011;26216;53.724;9.898;2023-07-13T07:57:53;5.85;;;1.48;;
40515;SDS011;26216;53.724;9.898;2023-07-13T08:00:20;5.78;;;2.10;;
40515;SDS011;26216;53.724;9.898;2023-07-13T08:02:46;4.38;;;1.50;;
40515;SDS011;26216;53.724;9.898;2023-07-13T08:05:13;3.95;;;1.33;;
40515;SDS011;26216;53.724;9.898;2023-07-13T08:07:39;3.42;;;1.30;;
40515;SDS011;26216;53.724;9.898;2023-07-13T08:10:06;2.15;;;1.10;;
40515;SDS011;26216;53.724;9.898;2023-07-13T08:12:36;6.10;;;1.80;;
40515;SDS011;26216;53.724;9.898;2023-07-13T08:15:04;2.63;;;1.20;;
40515;SDS011;26216;53.724;9.898;2023-07-13T08:17:32;4.28;;;1.50;;
40515;SDS011;26216;53.724;9.898;2023-07-13T08:19:58;4.90;;;1.80;;
40515;SDS011;26216;53.724;9.898;2023-07-13T08:22:23;5.20;;;1.48;;
40515;SDS011;26216;53.724;9.898;2023-07-13T08:24:49;2.20;;;1.17;;
40515;SDS011;26216;53.724;9.898;2023-07-13T08:27:24;4.80;;;1.80;;
40515;SDS011;26216;53.724;9.898;2023-07-13T08:29:51;3.78;;;1.40;;
40515;SDS011;26216;53.724;9.898;2023-07-13T08:32:18;3.47;;;1.30;;
40515;SDS011;26216;53.724;9.898;2023-07-13T08:34:45;3.13;;;1.13;;
40515;SDS011;26216;53.724;9.898;2023-07-13T08:37:12;4.53;;;1.42;;
40515;SDS011;26216;53.724;9.898;2023-07-13T08:39:38;5.32;;;1.80;;
40515;SDS011;26216;53.724;9.898;2023-07-13T08:42:12;2.92;;;1.40;;
40515;SDS011;26216;53.724;9.898;2023-07-13T08:47:51;3.92;;;1.40;;
40515;SDS011;26216;53.724;9.898;2023-07-13T08:50:27;3.20;;;1.20;;
40515;SDS011;26216;53.724;9.898;2023-07-13T08:52:59;4.43;;;1.50;;
40515;SDS011;26216;53.724;9.898;2023-07-13T08:55:28;3.97;;;1.48;;
40515;SDS011;26216;53.724;9.898;2023-07-13T08:58:03;4.13;;;1.55;;
40515;SDS011;26216;53.724;9.898;2023-07-13T09:03:20;2.90;;;1.35;;
40515;SDS011;26216;53.724;9.898;2023-07-13T09:05:51;5.88;;;1.75;;
40515;SDS011;26216;53.724;9.898;2023-07-13T09:16:46;5.68;;;2.13;;
40515;SDS011;26216;53.724;9.898;2023-07-13T09:19:15;6.32;;;1.83;;
40515;SDS011;26216;53.724;9.898;2023-07-13T09:21:48;3.65;;;1.77;;
40515;SDS011;26216;53.724;9.898;2023-07-13T09:27:17;5.18;;;1.90;;
40515;SDS011;26216;53.724;9.898;2023-07-13T09:32:48;5.18;;;2.33;;
40515;SDS011;26216;53.724;9.898;2023-07-13T09:35:21;6.15;;;2.20;;
40515;SDS011;26216;53.724;9.898;2023-07-13T09:37:56;5.22;;;1.90;;
40515;SDS011;26216;53.724;9.898;2023-07-13T09:40:24;3.65;;;1.67;;
40515;SDS011;26216;53.724;9.898;2023-07-13T09:42:58;3.33;;;1.20;;
40515;SDS011;26216;53.724;9.898;2023-07-13T09:45:28;6.05;;;2.10;;
40515;SDS011;26216;53.724;9.898;2023-07-13T09:47:59;3.05;;;1.10;;
40515;SDS011;26216;53.724;9.898;2023-07-13T09:50:30;4.00;;;1.73;;
40515;SDS011;26216;53.724;9.898;2023-07-13T09:52:56;2.90;;;1.40;;
40515;SDS011;26216;53.724;9.898;2023-07-13T09:55:37;4.00;;;1.50;;
40515;SDS011;26216;53.724;9.898;2023-07-13T10:00:41;3.88;;;1.40;;
40515;SDS011;26216;53.724;9.898;2023-07-13T10:03:19;2.65;;;1.60;;
40515;SDS011;26216;53.724;9.898;2023-07-13T10:05:47;3.70;;;1.50;;
40515;SDS011;26216;53.724;9.898;2023-07-13T10:10:54;4.28;;;1.58;;
40515;SDS011;26216;53.724;9.898;2023-07-13T10:15:57;4.75;;;1.95;;
40515;SDS011;26216;53.724;9.898;2023-07-13T10:18:24;2.45;;;1.20;;
40515;SDS011;26216;53.724;9.898;2023-07-13T10:20:58;3.80;;;1.75;;
40515;SDS011;26216;53.724;9.898;2023-07-13T10:23:35;4.72;;;1.63;;
40515;SDS011;26216;53.724;9.898;2023-07-13T10:26:02;2.65;;;1.20;;
40515;SDS011;26216;53.724;9.898;2023-07-13T10:28:36;2.15;;;1.30;;
40515;SDS011;26216;53.724;9.898;2023-07-13T10:31:04;3.22;;;1.10;;
40515;SDS011;26216;53.724;9.898;2023-07-13T10:33:36;3.60;;;1.40;;
40515;SDS011;26216;53.724;9.898;2023-07-13T10:36:46;2.60;;;1.35;;
40515;SDS011;26216;53.724;9.898;2023-07-13T10:39:17;3.70;;;1.40;;
40515;SDS011;26216;53.724;9.898;2023-07-13T10:41:46;4.05;;;1.65;;
40515;SDS011;26216;53.724;9.898;2023-07-13T10:44:21;2.85;;;1.20;;
40515;SDS011;26216;53.724;9.898;2023-07-13T10:47:04;3.78;;;1.35;;
40515;SDS011;26216;53.724;9.898;2023-07-13T10:49:36;2.60;;;1.33;;
40515;SDS011;26216;53.724;9.898;2023-07-13T10:52:04;3.08;;;1.05;;
40515;SDS011;26216;53.724;9.898;2023-07-13T10:54:31;3.97;;;1.60;;
40515;SDS011;26216;53.724;9.898;2023-07-13T10:57:14;4.88;;;1.63;;
40515;SDS011;26216;53.724;9.898;2023-07-13T10:59:47;4.85;;;1.80;;
40515;SDS011;26216;53.724;9.898;2023-07-13T11:02:33;3.60;;;1.30;;
40515;SDS011;26216;53.724;9.898;2023-07-13T11:05:01;4.95;;;1.85;;
40515;SDS011;26216;53.724;9.898;2023-07-13T11:08:02;3.55;;;1.10;;
40515;SDS011;26216;53.724;9.898;2023-07-13T11:10:55;4.38;;;1.42;;
40515;SDS011;26216;53.724;9.898;2023-07-13T11:13:38;3.58;;;1.40;;
40515;SDS011;26216;53.724;9.898;2023-07-13T11:16:26;2.42;;;0.95;;
40515;SDS011;26216;53.724;9.898;2023-07-13T11:35:31;1.52;;;0.80;;
40515;SDS011;26216;53.724;9.898;2023-07-13T11:38:01;1.98;;;0.80;;
40515;SDS011;26216;53.724;9.898;2023-07-13T11:40:35;2.65;;;0.88;;
40515;SDS011;26216;53.724;9.898;2023-07-13T11:43:01;1.90;;;0.80;;
40515;SDS011;26216;53.724;9.898;2023-07-13T11:47:58;1.63;;;0.70;;
40515;SDS011;26216;53.724;9.898;2023-07-13T11:50:26;2.95;;;1.00;;
40515;SDS011;26216;53.724;9.898;2023-07-13T11:52:52;3.25;;;1.63;;
40515;SDS011;26216;53.724;9.898;2023-07-13T11:55:21;3.92;;;1.27;;
40515;SDS011;26216;53.724;9.898;2023-07-13T11:57:50;2.33;;;0.90;;
40515;SDS011;26216;53.724;9.898;2023-07-13T12:00:22;3.70;;;1.40;;
40515;SDS011;26216;53.724;9.898;2023-07-13T12:02:52;5.03;;;1.23;;
40515;SDS011;26216;53.724;9.898;2023-07-13T12:05:21;4.68;;;1.30;;
40515;SDS011;26216;53.724;9.898;2023-07-13T12:07:47;3.40;;;1.15;;
40515;SDS011;26216;53.724;9.898;2023-07-13T12:17:35;1.42;;;0.70;;
40515;SDS011;26216;53.724;9.898;2023-07-13T12:20:21;1.63;;;0.65;;
40515;SDS011;26216;53.724;9.898;2023-07-13T12:22:52;0.60;;;0.50;;
40515;SDS011;26216;53.724;9.898;2023-07-13T12:25:18;0.90;;;0.55;;
40515;SDS011;26216;53.724;9.898;2023-07-13T12:27:49;1.25;;;0.50;;
40515;SDS011;26216;53.724;9.898;2023-07-13T12:30:26;0.57;;;0.50;;
40515;SDS011;26216;53.724;9.898;2023-07-13T12:33:11;1.55;;;0.63;;
40515;SDS011;26216;53.724;9.898;2023-07-13T12:35:42;1.38;;;0.68;;
40515;SDS011;26216;53.724;9.898;2023-07-13T12:38:12;0.88;;;0.77;;
40515;SDS011;26216;53.724;9.898;2023-07-13T12:40:38;0.68;;;0.50;;
40515;SDS011;26216;53.724;9.898;2023-07-13T12:43:10;1.83;;;0.70;;
40515;SDS011;26216;53.724;9.898;2023-07-13T12:45:38;3.20;;;0.70;;
40515;SDS011;26216;53.724;9.898;2023-07-13T12:48:05;2.05;;;0.80;;
40515;SDS011;26216;53.724;9.898;2023-07-13T12:50:42;2.17;;;0.90;;
40515;SDS011;26216;53.724;9.898;2023-07-13T12:53:15;2.77;;;1.00;;
40515;SDS011;26216;53.724;9.898;2023-07-13T12:55:47;1.80;;;0.90;;
40515;SDS011;26216;53.724;9.898;2023-07-13T13:01:02;3.00;;;0.95;;
40515;SDS011;26216;53.724;9.898;2023-07-13T13:03:34;2.95;;;1.02;;
40515;SDS011;26216;53.724;9.898;2023-07-13T13:06:06;2.15;;;1.00;;
40515;SDS011;26216;53.724;9.898;2023-07-13T13:08:44;2.10;;;0.80;;
40515;SDS011;26216;53.724;9.898;2023-07-13T13:11:14;1.13;;;0.70;;
40515;SDS011;26216;53.724;9.898;2023-07-13T13:13:44;1.67;;;0.80;;
40515;SDS011;26216;53.724;9.898;2023-07-13T13:16:14;1.63;;;0.90;;
40515;SDS011;26216;53.724;9.898;2023-07-13T13:18:50;2.22;;;0.90;;
40515;SDS011;26216;53.724;9.898;2023-07-13T13:21:18;2.25;;;1.02;;
40515;SDS011;26216;53.724;9.898;2023-07-13T13:23:45;1.98;;;1.08;;
40515;SDS011;26216;53.724;9.898;2023-07-13T13:26:13;3.65;;;1.20;;
40515;SDS011;26216;53.724;9.898;2023-07-13T13:28:43;1.95;;;0.75;;
40515;SDS011;26216;53.724;9.898;2023-07-13T13:31:11;2.33;;;0.85;;
40515;SDS011;26216;53.724;9.898;2023-07-13T13:33:41;1.80;;;0.90;;
40515;SDS011;26216;53.724;9.898;2023-07-13T13:36:20;1.45;;;0.93;;
40515;SDS011;26216;53.724;9.898;2023-07-13T13:38:48;1.98;;;0.90;;
40515;SDS011;26216;53.724;9.898;2023-07-13T13:41:16;2.20;;;1.10;;
40515;SDS011;26216;53.724;9.898;2023-07-13T13:43:43;0.75;;;0.60;;
40515;SDS011;26216;53.724;9.898;2023-07-13T13:46:21;1.80;;;0.85;;
40515;SDS011;26216;53.724;9.898;2023-07-13T13:48:54;2.17;;;1.13;;
40515;SDS011;26216;53.724;9.898;2023-07-13T13:51:21;2.05;;;0.98;;
40515;SDS011;26216;53.724;9.898;2023-07-13T13:53:49;3.53;;;1.92;;
40515;SDS011;26216;53.724;9.898;2023-07-13T13:56:15;2.08;;;0.80;;
40515;SDS011;26216;53.724;9.898;2023-07-13T13:58:44;1.83;;;0.90;;
40515;SDS011;26216;53.724;9.898;2023-07-13T14:01:14;2.00;;;1.10;;
40515;SDS011;26216;53.724;9.898;2023-07-13T14:03:43;2.70;;;1.20;;
40515;SDS011;26216;53.724;9.898;2023-07-13T14:06:13;1.38;;;1.02;;
40515;SDS011;26216;53.724;9.898;2023-07-13T14:08:40;1.48;;;0.82;;
40515;SDS011;26216;53.724;9.898;2023-07-13T14:11:07;2.10;;;1.00;;
40515;SDS011;26216;53.724;9.898;2023-07-13T14:13:42;1.38;;;0.95;;
40515;SDS011;26216;53.724;9.898;2023-07-13T14:16:16;2.15;;;1.10;;
40515;SDS011;26216;53.724;9.898;2023-07-13T14:18:44;2.08;;;1.00;;
40515;SDS011;26216;53.724;9.898;2023-07-13T14:21:15;2.53;;;1.10;;
40515;SDS011;26216;53.724;9.898;2023-07-13T14:26:14;4.20;;;1.58;;
40515;SDS011;26216;53.724;9.898;2023-07-13T14:28:42;1.70;;;1.10;;
40515;SDS011;26216;53.724;9.898;2023-07-13T14:31:10;2.83;;;1.02;;
40515;SDS011;26216;53.724;9.898;2023-07-13T14:33:37;2.00;;;1.08;;
40515;SDS011;26216;53.724;9.898;2023-07-13T14:36:05;1.70;;;1.00;;
40515;SDS011;26216;53.724;9.898;2023-07-13T14:38:38;1.90;;;0.93;;
40515;SDS011;26216;53.724;9.898;2023-07-13T14:41:04;3.25;;;1.02;;
40515;SDS011;26216;53.724;9.898;2023-07-13T14:43:33;1.38;;;0.90;;
40515;SDS011;26216;53.724;9.898;2023-07-13T14:45:58;2.85;;;1.10;;
40515;SDS011;26216;53.724;9.898;2023-07-13T14:48:25;2.90;;;1.25;;
40515;SDS011;26216;53.724;9.898;2023-07-13T14:50:53;2.13;;;1.00;;
40515;SDS011;26216;53.724;9.898;2023-07-13T14:53:21;3.35;;;1.20;;
40515;SDS011;26216;53.724;9.898;2023-07-13T14:55:48;1.67;;;0.77;;
40515;SDS011;26216;53.724;9.898;2023-07-13T14:58:14;1.77;;;1.00;;
40515;SDS011;26216;53.724;9.898;2023-07-13T15:00:41;1.50;;;1.00;;
40515;SDS011;26216;53.724;9.898;2023-07-13T15:03:13;2.58;;;1.10;;
40515;SDS011;26216;53.724;9.898;2023-07-13T15:05:46;2.40;;;0.90;;
40515;SDS011;26216;53.724;9.898;2023-07-13T15:08:13;1.67;;;1.10;;
40515;SDS011;26216;53.724;9.898;2023-07-13T15:10:41;1.52;;;0.70;;
40515;SDS011;26216;53.724;9.898;2023-07-13T15:13:20;2.42;;;0.90;;
40515;SDS011;26216;53.724;9.898;2023-07-13T15:15:49;3.60;;;0.70;;
40515;SDS011;26216;53.724;9.898;2023-07-13T15:18:18;2.03;;;0.90;;
40515;SDS011;26216;53.724;9.898;2023-07-13T15:20:48;2.40;;;0.80;;
40515;SDS011;26216;53.724;9.898;2023-07-13T15:23:16;2.38;;;1.10;;
40515;SDS011;26216;53.724;9.898;2023-07-13T15:25:43;1.63;;;0.73;;
40515;SDS011;26216;53.724;9.898;2023-07-13T15:28:09;2.47;;;0.80;;
40515;SDS011;26216;53.724;9.898;2023-07-13T15:30:41;2.97;;;1.10;;
40515;SDS011;26216;53.724;9.898;2023-07-13T15:33:16;2.13;;;0.95;;
40515;SDS011;26216;53.724;9.898;2023-07-13T15:35:42;1.67;;;0.70;;
40515;SDS011;26216;53.724;9.898;2023-07-13T15:38:19;2.60;;;0.90;;
40515;SDS011;26216;53.724;9.898;2023-07-13T15:40:50;1.75;;;1.05;;
40515;SDS011;26216;53.724;9.898;2023-07-13T15:43:18;2.45;;;0.90;;
40515;SDS011;26216;53.724;9.898;2023-07-13T15:45:45;3.00;;;1.10;;
40515;SDS011;26216;53.724;9.898;2023-07-13T15:48:16;2.42;;;0.70;;
40515;SDS011;26216;53.724;9.898;2023-07-13T15:50:45;0.95;;;0.55;;
40515;SDS011;26216;53.724;9.898;2023-07-13T15:53:23;3.00;;;0.80;;
40515;SDS011;26216;53.724;9.898;2023-07-13T15:55:51;1.10;;;0.80;;
40515;SDS011;26216;53.724;9.898;2023-07-13T15:58:17;1.73;;;0.70;;